createdAt,value
2017-03-13T00:00:22.363Z,99.99
2017-03-13T00:01:22.332Z,99.99
2017-03-13T00:02:22.315Z,99.99
2017-03-13T00:03:22.299Z,99.99
2017-03-13T00:04:22.280Z,99.99
2017-03-13T00:05:22.258Z,99.99
2017-03-13T00:06:22.252Z,99.99
2017-03-13T00:07:22.235Z,99.99
2017-03-13T00:08:22.232Z,99.99
2017-03-13T00:09:22.186Z,99.99
2017-03-13T00:10:22.171Z,99.99
2017-03-13T00:11:22.166Z,99.99
2017-03-13T00:12:22.132Z,99.99
2017-03-13T00:13:22.114Z,99.99
2017-03-13T00:14:22.095Z,99.99
2017-03-13T00:15:22.079Z,99.99
2017-03-13T00:16:22.064Z,99.41
2017-03-13T00:17:22.043Z,98.47
2017-03-13T00:18:22.022Z,94.89
2017-03-13T00:19:22.016Z,94.89
2017-03-13T00:20:21.987Z,97.53
2017-03-13T00:21:21.967Z,98.38
2017-03-13T00:22:21.965Z,97.72
2017-03-13T00:23:21.949Z,93.75
2017-03-13T00:24:21.914Z,94.98
2017-03-13T00:25:21.894Z,95.45
2017-03-13T00:26:21.878Z,97.15
2017-03-13T00:27:21.860Z,97.43
2017-03-13T00:28:21.449Z,97.15
2017-03-13T00:29:21.825Z,97.81
2017-03-13T00:30:21.817Z,96.58
2017-03-13T00:31:21.785Z,94.79
2017-03-13T00:32:21.783Z,95.83
2017-03-13T00:33:21.750Z,97.62
2017-03-13T00:34:21.732Z,96.49
2017-03-13T00:35:21.722Z,95.83
2017-03-13T00:36:21.734Z,95.45
2017-03-13T00:37:21.689Z,96.58
2017-03-13T00:38:21.669Z,96.49
2017-03-13T00:39:21.649Z,96.58
2017-03-13T00:40:21.619Z,96.01
2017-03-13T00:41:21.605Z,95.17
2017-03-13T00:42:21.582Z,95.07
2017-03-13T00:43:21.570Z,94.41
2017-03-13T00:44:21.545Z,93.84
2017-03-13T00:45:21.531Z,93.75
2017-03-13T00:46:21.522Z,92.99
2017-03-13T00:47:21.490Z,95.73
2017-03-13T00:48:21.484Z,96.77
2017-03-13T00:49:21.460Z,97.05
2017-03-13T00:50:21.452Z,96.96
2017-03-13T00:51:21.417Z,97.34
2017-03-13T00:52:21.399Z,97.53
2017-03-13T00:53:21.386Z,97.34
2017-03-13T00:54:21.386Z,96.39
2017-03-13T00:55:21.349Z,96.3
2017-03-13T00:56:21.330Z,96.68
2017-03-13T00:57:21.308Z,97.43
2017-03-13T00:58:21.290Z,97.53
2017-03-13T00:59:21.307Z,97.34
2017-03-13T01:00:21.254Z,97.53
2017-03-13T01:01:21.239Z,98.28
2017-03-13T01:02:21.213Z,97.53
2017-03-13T01:03:21.198Z,96.49
2017-03-13T01:04:21.176Z,95.07
2017-03-13T01:05:21.160Z,95.73
2017-03-13T01:06:21.153Z,96.39
2017-03-13T01:07:21.123Z,95.36
2017-03-13T01:08:21.113Z,91.96
2017-03-13T01:09:21.090Z,91.39
2017-03-13T01:10:21.070Z,92.24
2017-03-13T01:11:21.050Z,91.49
2017-03-13T01:12:21.032Z,91.49
2017-03-13T01:13:21.012Z,91.49
2017-03-13T01:14:21.001Z,92.43
2017-03-13T01:15:20.987Z,91.49
2017-03-13T01:16:20.955Z,91.67
2017-03-13T01:17:20.940Z,92.8
2017-03-13T01:18:20.934Z,93.37
2017-03-13T01:19:20.901Z,93.94
2017-03-13T01:20:20.883Z,95.73
2017-03-13T01:21:20.875Z,95.92
2017-03-13T01:22:20.855Z,94.22
2017-03-13T01:23:20.830Z,94.98
2017-03-13T01:24:20.810Z,96.01
2017-03-13T01:25:20.788Z,96.01
2017-03-13T01:26:20.400Z,97.05
2017-03-13T01:27:20.807Z,96.96
2017-03-13T01:28:20.734Z,96.2
2017-03-13T01:29:20.721Z,94.41
2017-03-13T01:30:20.698Z,94.32
2017-03-13T01:31:20.685Z,94.98
2017-03-13T01:32:20.674Z,94.13
2017-03-13T01:33:20.644Z,94.22
2017-03-13T01:34:20.625Z,94.22
2017-03-13T01:35:20.605Z,95.73
2017-03-13T01:36:20.589Z,96.11
2017-03-13T01:37:20.568Z,95.92
2017-03-13T01:38:20.550Z,96.11
2017-03-13T01:39:20.133Z,95.36
2017-03-13T01:40:20.519Z,95.64
2017-03-13T01:41:20.530Z,94.22
2017-03-13T01:42:20.478Z,91.67
2017-03-13T01:43:20.459Z,91.3
2017-03-13T01:44:20.441Z,90.26
2017-03-13T01:45:20.435Z,88.65
2017-03-13T01:46:20.407Z,89.59
2017-03-13T01:47:20.390Z,86.86
2017-03-13T01:48:20.368Z,84.5
2017-03-13T01:49:20.373Z,80.82
2017-03-13T01:50:20.332Z,77.32
2017-03-13T01:51:20.313Z,75.71
2017-03-13T01:52:20.313Z,77.23
2017-03-13T01:53:20.291Z,79.11
2017-03-13T01:54:20.257Z,79.4
2017-03-13T01:55:20.238Z,79.4
2017-03-13T01:56:20.227Z,80.25
2017-03-13T01:57:20.206Z,79.49
2017-03-13T01:58:20.189Z,79.3
2017-03-13T01:59:20.180Z,81.01
2017-03-13T02:00:19.761Z,80.82
2017-03-13T02:01:20.128Z,80.25
2017-03-13T02:02:20.112Z,78.55
2017-03-13T02:03:20.097Z,77.51
2017-03-13T02:04:19.674Z,77.51
2017-03-13T02:05:20.059Z,77.89
2017-03-13T02:06:20.041Z,76.85
2017-03-13T02:07:20.018Z,71.37
2017-03-13T02:08:20.006Z,69.11
2017-03-13T02:09:19.999Z,69.3
2017-03-13T02:10:19.964Z,68.92
2017-03-13T02:11:19.942Z,69.86
2017-03-13T02:12:19.930Z,71.19
2017-03-13T02:13:19.909Z,72.22
2017-03-13T02:14:19.887Z,71.75
2017-03-13T02:15:19.872Z,70.53
2017-03-13T02:16:19.865Z,70.43
2017-03-13T02:17:19.832Z,70.62
2017-03-13T02:18:19.810Z,70.05
2017-03-13T02:19:19.796Z,70.05
2017-03-13T02:20:19.780Z,69.86
2017-03-13T02:21:19.765Z,69.01
2017-03-13T02:22:19.739Z,68.92
2017-03-13T02:23:19.723Z,68.92
2017-03-13T02:24:19.701Z,69.39
2017-03-13T02:25:19.682Z,68.82
2017-03-13T02:26:19.667Z,68.16
2017-03-13T02:27:19.648Z,68.26
2017-03-13T02:28:19.630Z,68.73
2017-03-13T02:29:19.612Z,69.11
2017-03-13T02:30:19.589Z,70.24
2017-03-13T02:31:19.584Z,70.72
2017-03-13T02:32:19.559Z,70.34
2017-03-13T02:33:19.546Z,69.49
2017-03-13T02:34:19.519Z,68.44
2017-03-13T02:35:19.501Z,68.26
2017-03-13T02:36:19.480Z,68.92
2017-03-13T02:37:19.464Z,69.49
2017-03-13T02:38:19.453Z,70.53
2017-03-13T02:39:19.428Z,70.81
2017-03-13T02:40:19.408Z,71.19
2017-03-13T02:41:18.992Z,71.28
2017-03-13T02:42:19.373Z,70.9
2017-03-13T02:43:19.352Z,71.47
2017-03-13T02:44:18.943Z,72.32
2017-03-13T02:45:18.918Z,72.79
2017-03-13T02:46:19.295Z,73.55
2017-03-13T02:47:18.889Z,71
2017-03-13T02:48:18.858Z,71.47
2017-03-13T02:49:18.844Z,72.41
2017-03-13T02:50:18.841Z,71.37
2017-03-13T02:51:18.812Z,71.09
2017-03-13T02:52:19.185Z,71.84
2017-03-13T02:53:19.186Z,71.75
2017-03-13T02:54:19.151Z,70.81
2017-03-13T02:55:19.142Z,70.43
2017-03-13T02:56:19.120Z,70.43
2017-03-13T02:57:19.092Z,69.96
2017-03-13T02:58:19.087Z,69.01
2017-03-13T02:59:19.055Z,69.11
2017-03-13T03:00:18.639Z,69.58
2017-03-13T03:01:19.020Z,69.01
2017-03-13T03:02:18.999Z,70.05
2017-03-13T03:03:18.982Z,70.34
2017-03-13T03:04:18.964Z,69.58
2017-03-13T03:05:18.944Z,68.44
2017-03-13T03:06:18.928Z,69.01
2017-03-13T03:07:18.919Z,70.62
2017-03-13T03:08:18.890Z,68.63
2017-03-13T03:09:18.871Z,67.88
2017-03-13T03:10:18.861Z,68.63
2017-03-13T03:11:18.837Z,70.34
2017-03-13T03:12:18.813Z,71.09
2017-03-13T03:13:18.794Z,72.41
2017-03-13T03:14:18.778Z,73.64
2017-03-13T03:15:18.758Z,73.93
2017-03-13T03:16:18.751Z,74.02
2017-03-13T03:17:18.722Z,74.11
2017-03-13T03:18:18.710Z,74.02
2017-03-13T03:19:18.685Z,73.74
2017-03-13T03:20:18.681Z,73.74
2017-03-13T03:21:18.648Z,72.88
2017-03-13T03:22:18.625Z,72.32
2017-03-13T03:23:18.615Z,70.81
2017-03-13T03:24:18.592Z,71
2017-03-13T03:25:18.574Z,72.13
2017-03-13T03:26:18.554Z,72.22
2017-03-13T03:27:18.542Z,71.84
2017-03-13T03:28:18.517Z,70.9
2017-03-13T03:29:18.498Z,70.43
2017-03-13T03:30:18.481Z,69.01
2017-03-13T03:31:18.461Z,68.44
2017-03-13T03:32:18.446Z,68.35
2017-03-13T03:33:18.425Z,66.37
2017-03-13T03:34:18.016Z,64.2
2017-03-13T03:35:18.401Z,65.05
2017-03-13T03:36:18.373Z,66.47
2017-03-13T03:37:18.387Z,66.56
2017-03-13T03:38:18.337Z,67.03
2017-03-13T03:39:18.316Z,66.18
2017-03-13T03:40:18.299Z,64.58
2017-03-13T03:41:18.278Z,62.59
2017-03-13T03:42:18.258Z,60.89
2017-03-13T03:43:18.245Z,59.76
2017-03-13T03:44:18.221Z,56.27
2017-03-13T03:45:18.199Z,53.25
2017-03-13T03:46:18.188Z,51.54
2017-03-13T03:47:18.169Z,50.23
2017-03-13T03:48:18.148Z,50.13
2017-03-13T03:49:18.128Z,47.49
2017-03-13T03:50:18.110Z,48.15
2017-03-13T03:51:18.093Z,48.81
2017-03-13T03:52:18.080Z,48.24
2017-03-13T03:53:18.057Z,47.3
2017-03-13T03:54:18.035Z,47.2
2017-03-13T03:55:18.019Z,47.11
2017-03-13T03:56:18.001Z,46.07
2017-03-13T03:57:17.999Z,45.6
2017-03-13T03:58:17.961Z,46.07
2017-03-13T03:59:17.946Z,47.2
2017-03-13T04:00:17.936Z,48.15
2017-03-13T04:01:17.941Z,48.71
2017-03-13T04:02:17.890Z,49.28
2017-03-13T04:03:17.870Z,49.94
2017-03-13T04:04:17.453Z,50.42
2017-03-13T04:05:17.832Z,49.57
2017-03-13T04:06:17.823Z,48.43
2017-03-13T04:07:17.404Z,48.15
2017-03-13T04:08:17.777Z,47.77
2017-03-13T04:09:17.759Z,47.11
2017-03-13T04:10:17.739Z,47.49
2017-03-13T04:11:17.721Z,47.3
2017-03-13T04:12:17.701Z,47.11
2017-03-13T04:13:17.684Z,46.07
2017-03-13T04:14:17.671Z,45.79
2017-03-13T04:15:17.658Z,45.22
2017-03-13T04:16:17.635Z,45.22
2017-03-13T04:17:17.615Z,44.56
2017-03-13T04:18:17.593Z,43.62
2017-03-13T04:19:17.575Z,44.09
2017-03-13T04:20:17.155Z,44.56
2017-03-13T04:21:17.550Z,45.03
2017-03-13T04:22:17.527Z,45.13
2017-03-13T04:23:17.500Z,44.94
2017-03-13T04:24:17.480Z,44.56
2017-03-13T04:25:17.461Z,44.46
2017-03-13T04:26:17.455Z,43.9
2017-03-13T04:27:17.033Z,43.71
2017-03-13T04:28:17.406Z,43.15
2017-03-13T04:29:17.396Z,43.24
2017-03-13T04:30:17.368Z,42.36
2017-03-13T04:31:17.350Z,42.11
2017-03-13T04:32:16.932Z,41.92
2017-03-13T04:33:17.313Z,42.27
2017-03-13T04:34:17.294Z,40.77
2017-03-13T04:35:17.275Z,39.25
2017-03-13T04:36:16.876Z,38.61
2017-03-13T04:37:17.240Z,38.04
2017-03-13T04:38:17.220Z,37.57
2017-03-13T04:39:17.201Z,36.63
2017-03-13T04:40:17.191Z,35.19
2017-03-13T04:41:17.165Z,34.46
2017-03-13T04:42:17.145Z,32.95
2017-03-13T04:43:17.132Z,31.44
2017-03-13T04:44:17.108Z,31.15
2017-03-13T04:45:17.108Z,31.34
2017-03-13T04:46:17.073Z,30.02
2017-03-13T04:47:17.051Z,30.11
2017-03-13T04:48:17.046Z,30.02
2017-03-13T04:49:17.018Z,30.58
2017-03-13T04:50:17.014Z,31.63
2017-03-13T04:51:16.975Z,30.87
2017-03-13T04:52:16.961Z,31.15
2017-03-13T04:53:16.938Z,31.63
2017-03-13T04:54:16.924Z,32.1
2017-03-13T04:55:16.901Z,32
2017-03-13T04:56:16.889Z,31.72
2017-03-13T04:57:16.874Z,30.49
2017-03-13T04:58:16.856Z,29.17
2017-03-13T04:59:16.832Z,29.36
2017-03-13T05:00:16.822Z,30.68
2017-03-13T05:01:16.394Z,30.11
2017-03-13T05:02:16.775Z,29.17
2017-03-13T05:03:16.755Z,29.08
2017-03-13T05:04:16.340Z,29.17
2017-03-13T05:05:16.724Z,28.89
2017-03-13T05:06:16.712Z,27.75
2017-03-13T05:07:16.684Z,27.75
2017-03-13T05:08:16.266Z,27.28
2017-03-13T05:09:16.655Z,24.26
2017-03-13T05:10:16.630Z,25.02
2017-03-13T05:11:16.619Z,26.25
2017-03-13T05:12:16.594Z,26.62
2017-03-13T05:13:16.593Z,27.47
2017-03-13T05:14:16.556Z,27.66
2017-03-13T05:15:16.532Z,27.47
2017-03-13T05:16:16.529Z,27.94
2017-03-13T05:17:16.511Z,26.9
2017-03-13T05:18:16.478Z,26.62
2017-03-13T05:19:16.462Z,26.9
2017-03-13T05:20:16.439Z,27.09
2017-03-13T05:21:16.033Z,27.56
2017-03-13T05:22:16.415Z,27.37
2017-03-13T05:23:16.401Z,27.75
2017-03-13T05:24:16.380Z,27.37
2017-03-13T05:25:16.354Z,27.09
2017-03-13T05:26:16.329Z,27.75
2017-03-13T05:27:16.314Z,27.56
2017-03-13T05:28:16.298Z,28.23
2017-03-13T05:29:16.275Z,28.89
2017-03-13T05:30:16.261Z,27.85
2017-03-13T05:31:16.236Z,26.72
2017-03-13T05:32:16.218Z,27
2017-03-13T05:33:16.201Z,27.94
2017-03-13T05:34:16.189Z,28.7
2017-03-13T05:35:16.163Z,29.93
2017-03-13T05:36:16.167Z,31.15
2017-03-13T05:37:16.131Z,31.06
2017-03-13T05:38:16.111Z,30.4
2017-03-13T05:39:16.106Z,29.74
2017-03-13T05:40:16.074Z,29.27
2017-03-13T05:41:15.655Z,29.64
2017-03-13T05:42:16.042Z,29.64
2017-03-13T05:43:16.032Z,30.02
2017-03-13T05:44:16.011Z,31.63
2017-03-13T05:45:15.988Z,31.91
2017-03-13T05:46:15.964Z,32.1
2017-03-13T05:47:15.944Z,32.29
2017-03-13T05:48:15.924Z,31.81
2017-03-13T05:49:15.910Z,31.34
2017-03-13T05:50:15.889Z,31.81
2017-03-13T05:51:15.870Z,31.91
2017-03-13T05:52:15.850Z,32.19
2017-03-13T05:53:15.831Z,31.91
2017-03-13T05:54:15.819Z,31.72
2017-03-13T05:55:15.815Z,33.23
2017-03-13T05:56:15.780Z,35.12
2017-03-13T05:57:15.798Z,35.88
2017-03-13T05:58:15.741Z,36.25
2017-03-13T05:59:15.325Z,34.17
2017-03-13T06:00:15.701Z,34.36
2017-03-13T06:01:15.288Z,34.93
2017-03-13T06:02:15.268Z,35.21
2017-03-13T06:03:15.267Z,34.55
2017-03-13T06:04:15.633Z,35.12
2017-03-13T06:05:15.612Z,35.69
2017-03-13T06:06:15.600Z,35.59
2017-03-13T06:07:15.572Z,35.12
2017-03-13T06:08:15.555Z,33.14
2017-03-13T06:09:15.537Z,32.86
2017-03-13T06:10:15.521Z,33.14
2017-03-13T06:11:15.510Z,33.8
2017-03-13T06:12:15.488Z,33.33
2017-03-13T06:13:15.466Z,32.19
2017-03-13T06:14:15.473Z,32.57
2017-03-13T06:15:15.424Z,33.33
2017-03-13T06:16:15.414Z,34.17
2017-03-13T06:17:14.996Z,33.61
2017-03-13T06:18:14.980Z,32.48
2017-03-13T06:19:15.356Z,32.57
2017-03-13T06:20:15.341Z,33.33
2017-03-13T06:21:15.332Z,32.57
2017-03-13T06:22:15.301Z,32
2017-03-13T06:23:15.281Z,31.06
2017-03-13T06:24:15.261Z,31.81
2017-03-13T06:25:15.254Z,31.81
2017-03-13T06:26:15.229Z,31.44
2017-03-13T06:27:15.210Z,30.68
2017-03-13T06:28:15.201Z,30.49
2017-03-13T06:29:15.179Z,30.49
2017-03-13T06:30:14.759Z,31.15
2017-03-13T06:31:15.135Z,29.83
2017-03-13T06:32:15.130Z,27.29
2017-03-13T06:33:15.101Z,26.54
2017-03-13T06:34:15.082Z,25.5
2017-03-13T06:35:15.065Z,25.79
2017-03-13T06:36:15.054Z,30.33
2017-03-13T06:37:15.038Z,38.37
2017-03-13T06:38:15.014Z,42.71
2017-03-13T06:39:14.999Z,51.53
2017-03-13T06:40:14.582Z,58.15
2017-03-13T06:41:14.970Z,65.15
2017-03-13T06:42:14.941Z,68.87
2017-03-13T06:43:14.925Z,73.03
2017-03-13T06:44:14.907Z,74.83
2017-03-13T06:45:14.890Z,80.22
2017-03-13T06:46:14.874Z,83.91
2017-03-13T06:47:14.857Z,89.25
2017-03-13T06:48:14.852Z,92.47
2017-03-13T06:49:14.828Z,93.94
2017-03-13T06:50:14.815Z,94.89
2017-03-13T06:51:14.787Z,94.89
2017-03-13T06:52:14.772Z,97.63
2017-03-13T06:53:14.762Z,98.96
2017-03-13T06:54:14.741Z,99.99
2017-03-13T06:55:14.732Z,99.99
2017-03-13T06:56:14.723Z,99.99
2017-03-13T06:57:14.690Z,99.99
2017-03-13T06:58:14.691Z,99.99
2017-03-13T06:59:14.654Z,99.99
2017-03-13T07:00:14.255Z,99.99
2017-03-13T07:01:14.244Z,99.99
2017-03-13T07:02:14.610Z,99.99
2017-03-13T07:03:14.593Z,99.99
2017-03-13T07:04:14.577Z,99.99
2017-03-13T07:05:14.197Z,99.99
2017-03-13T07:06:14.546Z,99.99
2017-03-13T07:07:14.538Z,99.99
2017-03-13T07:08:14.513Z,99.99
2017-03-13T07:09:14.499Z,99.99
2017-03-13T07:10:14.488Z,99.99
2017-03-13T07:11:14.465Z,99.99
2017-03-13T07:12:14.490Z,99.99
2017-03-13T07:13:14.434Z,99.99
2017-03-13T07:14:14.419Z,99.99
2017-03-13T07:15:14.405Z,99.99
2017-03-13T07:16:14.387Z,99.99
2017-03-13T07:17:13.971Z,99.99
2017-03-13T07:18:14.365Z,99.99
2017-03-13T07:19:14.355Z,99.99
2017-03-13T07:20:14.329Z,99.99
2017-03-13T07:21:13.910Z,99.99
2017-03-13T07:22:14.294Z,99.99
2017-03-13T07:23:14.277Z,99.99
2017-03-13T07:24:14.268Z,99.99
2017-03-13T07:25:14.247Z,99.99
2017-03-13T07:26:14.235Z,99.99
2017-03-13T07:27:14.217Z,99.99
2017-03-13T07:28:14.201Z,99.99
2017-03-13T07:29:14.203Z,99.99
2017-03-13T07:30:14.170Z,99.99
2017-03-13T07:31:14.162Z,99.99
2017-03-13T07:32:14.141Z,99.99
2017-03-13T07:33:13.727Z,99.99
2017-03-13T07:34:14.109Z,99.99
2017-03-13T07:35:14.110Z,99.99
2017-03-13T07:36:14.090Z,99.99
2017-03-13T07:37:14.063Z,99.99
2017-03-13T07:38:14.050Z,99.99
2017-03-13T07:39:14.054Z,99.99
2017-03-13T07:40:14.029Z,99.99
2017-03-13T07:41:14.032Z,99.99
2017-03-13T07:42:13.989Z,99.99
2017-03-13T07:43:13.977Z,99.99
2017-03-13T07:44:13.962Z,99.99
2017-03-13T07:45:13.555Z,99.99
2017-03-13T07:46:13.932Z,99.99
2017-03-13T07:47:13.911Z,99.99
2017-03-13T07:48:13.901Z,99.99
2017-03-13T07:49:13.893Z,99.99
2017-03-13T07:50:13.867Z,99.99
2017-03-13T07:51:13.851Z,99.99
2017-03-13T07:52:13.845Z,99.99
2017-03-13T07:53:13.821Z,99.99
2017-03-13T07:54:13.815Z,99.99
2017-03-13T07:55:13.790Z,99.99
2017-03-13T07:56:13.776Z,99.99
2017-03-13T07:57:13.759Z,99.99
2017-03-13T07:58:13.743Z,99.99
2017-03-13T07:59:13.739Z,99.99
2017-03-13T08:00:13.716Z,99.99
2017-03-13T08:01:13.300Z,99.99
2017-03-13T08:02:13.692Z,99.99
2017-03-13T08:03:13.680Z,99.99
2017-03-13T08:04:13.254Z,99.99
2017-03-13T08:05:13.645Z,99.99
2017-03-13T08:06:13.626Z,99.99
2017-03-13T08:07:13.621Z,99.99
2017-03-13T08:08:13.591Z,99.99
2017-03-13T08:09:13.578Z,99.99
2017-03-13T08:10:13.561Z,99.99
2017-03-13T08:11:13.549Z,99.99
2017-03-13T08:12:13.536Z,99.99
2017-03-13T08:13:13.520Z,99.99
2017-03-13T08:14:13.503Z,99.99
2017-03-13T08:15:13.489Z,99.99
2017-03-13T08:16:13.472Z,99.99
2017-03-13T08:17:13.461Z,99.99
2017-03-13T08:18:13.448Z,99.99
2017-03-13T08:19:13.429Z,99.99
2017-03-13T08:20:13.026Z,99.99
2017-03-13T08:21:13.398Z,99.99
2017-03-13T08:22:13.386Z,99.99
2017-03-13T08:23:13.369Z,99.99
2017-03-13T08:24:13.360Z,99.99
2017-03-13T08:25:13.344Z,99.99
2017-03-13T08:26:13.326Z,99.99
2017-03-13T08:27:13.317Z,99.99
2017-03-13T08:28:13.302Z,99.99
2017-03-13T08:29:12.897Z,99.99
2017-03-13T08:30:13.265Z,99.99
2017-03-13T08:31:12.868Z,99.99
2017-03-13T08:32:13.255Z,99.99
2017-03-13T08:33:13.227Z,99.99
2017-03-13T08:34:13.207Z,99.99
2017-03-13T08:35:13.196Z,99.99
2017-03-13T08:36:13.180Z,99.99
2017-03-13T08:37:13.175Z,99.99
2017-03-13T08:38:13.154Z,99.99
2017-03-13T08:39:13.151Z,99.99
2017-03-13T08:40:13.124Z,99.99
2017-03-13T08:41:13.111Z,99.99
2017-03-13T08:42:13.111Z,99.99
2017-03-13T08:43:13.102Z,99.99
2017-03-13T08:44:13.072Z,99.99
2017-03-13T08:45:13.060Z,99.99
2017-03-13T08:46:13.042Z,99.99
2017-03-13T08:47:13.050Z,99.99
2017-03-13T08:48:13.014Z,99.99
2017-03-13T08:49:13.004Z,99.99
2017-03-13T08:50:12.997Z,99.99
2017-03-13T08:51:12.976Z,99.99
2017-03-13T08:52:12.958Z,99.99
2017-03-13T08:53:12.947Z,99.99
2017-03-13T08:54:12.934Z,99.99
2017-03-13T08:55:12.951Z,99.99
2017-03-13T08:56:12.920Z,99.99
2017-03-13T08:57:12.895Z,99.99
2017-03-13T08:58:12.887Z,98.73
2017-03-13T08:59:12.872Z,99.11
2017-03-13T09:00:12.854Z,98.44
2017-03-13T09:01:12.443Z,99.99
2017-03-13T09:02:12.828Z,97.16
2017-03-13T09:03:12.814Z,97.64
2017-03-13T09:04:12.798Z,98.39
2017-03-13T09:05:12.793Z,98.96
2017-03-13T09:06:12.775Z,98.3
2017-03-13T09:07:12.759Z,98.11
2017-03-13T09:08:12.763Z,99.34
2017-03-13T09:09:12.735Z,99.99
2017-03-13T09:10:12.729Z,99.99
2017-03-13T09:11:12.709Z,99.99
2017-03-13T09:12:12.691Z,99.99
2017-03-13T09:13:12.680Z,98.73
2017-03-13T09:14:12.669Z,94.84
2017-03-13T09:15:12.653Z,95.41
2017-03-13T09:16:12.642Z,92.18
2017-03-13T09:17:12.626Z,88.77
2017-03-13T09:18:12.612Z,88.29
2017-03-13T09:19:12.607Z,87.82
2017-03-13T09:20:12.595Z,90.1
2017-03-13T09:21:12.580Z,89.25
2017-03-13T09:22:12.560Z,87.92
2017-03-13T09:23:12.564Z,87.16
2017-03-13T09:24:12.532Z,88.29
2017-03-13T09:25:12.520Z,89.62
2017-03-13T09:26:12.510Z,91.14
2017-03-13T09:27:12.522Z,90.48
2017-03-13T09:28:12.492Z,89.86
2017-03-13T09:29:12.472Z,88.43
2017-03-13T09:30:12.454Z,87.58
2017-03-13T09:31:12.460Z,85.11
2017-03-13T09:32:12.432Z,83.59
2017-03-13T09:33:12.421Z,80.94
2017-03-13T09:34:12.402Z,79.94
2017-03-13T09:35:12.396Z,80.88
2017-03-13T09:36:12.384Z,74.81
2017-03-13T09:37:12.370Z,72.72
2017-03-13T09:38:12.360Z,73.96
2017-03-13T09:39:12.357Z,74.43
2017-03-13T09:40:12.328Z,73.57
2017-03-13T09:41:12.320Z,74.3
2017-03-13T09:42:11.912Z,76.1
2017-03-13T09:43:12.297Z,76.67
2017-03-13T09:44:12.280Z,78.56
2017-03-13T09:45:12.285Z,80.46
2017-03-13T09:46:12.259Z,80.08
2017-03-13T09:47:12.243Z,79.27
2017-03-13T09:48:12.232Z,79.17
2017-03-13T09:49:12.219Z,78.42
2017-03-13T09:50:12.210Z,76.14
2017-03-13T09:51:12.204Z,71.86
2017-03-13T09:52:12.191Z,72.34
2017-03-13T09:53:12.173Z,73.76
2017-03-13T09:54:12.174Z,73.76
2017-03-13T09:55:12.150Z,72.15
2017-03-13T09:56:12.137Z,71.9
2017-03-13T09:57:12.130Z,72.95
2017-03-13T09:58:12.115Z,71.52
2017-03-13T09:59:12.103Z,71.81
2017-03-13T10:00:12.102Z,71.43
2017-03-13T10:01:12.089Z,69.62
2017-03-13T10:02:12.065Z,66.9
2017-03-13T10:03:12.055Z,66.33
2017-03-13T10:04:11.643Z,66.24
2017-03-13T10:05:11.676Z,65.57
2017-03-13T10:06:12.017Z,64.81
2017-03-13T10:07:12.008Z,66.33
2017-03-13T10:08:11.997Z,64.14
2017-03-13T10:09:11.989Z,63.86
2017-03-13T10:10:11.972Z,63.39
2017-03-13T10:11:11.962Z,63.39
2017-03-13T10:12:11.958Z,60.72
2017-03-13T10:13:11.940Z,59.39
2017-03-13T10:14:11.529Z,59.87
2017-03-13T10:15:11.916Z,60.44
2017-03-13T10:16:11.507Z,61.68
2017-03-13T10:17:11.904Z,61.01
2017-03-13T10:18:11.886Z,62.34
2017-03-13T10:19:11.875Z,58.63
2017-03-13T10:20:11.859Z,56.35
2017-03-13T10:21:11.849Z,56.16
2017-03-13T10:22:11.435Z,57.3
2017-03-13T10:23:11.429Z,57.3
2017-03-13T10:24:11.816Z,60.06
2017-03-13T10:25:11.806Z,60.5
2017-03-13T10:26:11.799Z,60.69
2017-03-13T10:27:11.782Z,60.69
2017-03-13T10:28:11.380Z,61.17
2017-03-13T10:29:11.767Z,59.65
2017-03-13T10:30:11.362Z,60.5
2017-03-13T10:31:11.745Z,60.88
2017-03-13T10:32:11.725Z,60.79
2017-03-13T10:33:11.316Z,60.88
2017-03-13T10:34:11.308Z,60.5
2017-03-13T10:35:11.690Z,60.22
2017-03-13T10:36:11.293Z,60.79
2017-03-13T10:37:11.279Z,60.6
2017-03-13T10:38:11.261Z,60.03
2017-03-13T10:39:11.247Z,60.79
2017-03-13T10:40:11.240Z,59.58
2017-03-13T10:41:11.232Z,57.97
2017-03-13T10:42:11.614Z,59.3
2017-03-13T10:43:11.622Z,59.58
2017-03-13T10:44:11.595Z,59.87
2017-03-13T10:45:11.618Z,59.3
2017-03-13T10:46:11.571Z,58.35
2017-03-13T10:47:11.555Z,57.02
2017-03-13T10:48:11.149Z,56.45
2017-03-13T10:49:11.538Z,54.93
2017-03-13T10:50:11.554Z,57.59
2017-03-13T10:51:11.115Z,56.73
2017-03-13T10:52:11.506Z,57.02
2017-03-13T10:53:11.499Z,57.9
2017-03-13T10:54:11.083Z,59.33
2017-03-13T10:55:11.498Z,57.24
2017-03-13T10:56:11.459Z,56.57
2017-03-13T10:57:11.051Z,54.86
2017-03-13T10:58:11.436Z,54.67
2017-03-13T10:59:11.467Z,57.78
2017-03-13T11:00:11.417Z,58.35
2017-03-13T11:01:11.403Z,59.52
2017-03-13T11:02:11.406Z,56.85
2017-03-13T11:03:11.392Z,55.71
2017-03-13T11:04:11.373Z,54.86
2017-03-13T11:05:11.380Z,54.67
2017-03-13T11:06:11.354Z,53.72
2017-03-13T11:07:11.341Z,54.1
2017-03-13T11:08:11.334Z,53.81
2017-03-13T11:09:11.327Z,53.43
2017-03-13T11:10:11.326Z,54.29
2017-03-13T11:11:11.301Z,53.05
2017-03-13T11:12:11.292Z,51.72
2017-03-13T11:13:11.282Z,52.39
2017-03-13T11:14:11.283Z,52.86
2017-03-13T11:15:11.259Z,53.15
2017-03-13T11:16:11.252Z,53.15
2017-03-13T11:17:11.244Z,52.29
2017-03-13T11:18:11.225Z,50.68
2017-03-13T11:19:11.223Z,50.1
2017-03-13T11:20:11.213Z,51.06
2017-03-13T11:21:11.200Z,53.05
2017-03-13T11:22:11.188Z,54.38
2017-03-13T11:23:11.183Z,55.15
2017-03-13T11:24:11.162Z,55.05
2017-03-13T11:25:10.763Z,51.06
2017-03-13T11:26:11.145Z,50.2
2017-03-13T11:27:11.142Z,50.77
2017-03-13T11:28:11.123Z,49.35
2017-03-13T11:29:11.115Z,50.56
2017-03-13T11:30:11.103Z,50.74
2017-03-13T11:31:11.101Z,50.56
2017-03-13T11:32:11.084Z,51.7
2017-03-13T11:33:11.080Z,52.17
2017-03-13T11:34:11.063Z,53.81
2017-03-13T11:35:11.052Z,52.67
2017-03-13T11:36:11.044Z,50.87
2017-03-13T11:37:11.039Z,50.58
2017-03-13T11:38:11.018Z,49.91
2017-03-13T11:39:11.009Z,51.43
2017-03-13T11:40:10.604Z,50.58
2017-03-13T11:41:10.987Z,50.39
2017-03-13T11:42:10.979Z,51.15
2017-03-13T11:43:10.970Z,51.25
2017-03-13T11:44:10.957Z,50.96
2017-03-13T11:45:10.950Z,51.91
2017-03-13T11:46:10.934Z,52.67
2017-03-13T11:47:10.945Z,52.13
2017-03-13T11:48:10.920Z,50.32
2017-03-13T11:49:10.905Z,50.13
2017-03-13T11:50:10.897Z,49.56
2017-03-13T11:51:10.885Z,49.56
2017-03-13T11:52:10.880Z,50.51
2017-03-13T11:53:10.887Z,48.9
2017-03-13T11:54:10.867Z,48.87
2017-03-13T11:55:10.859Z,48.32
2017-03-13T11:56:10.435Z,48.11
2017-03-13T11:57:10.823Z,47.92
2017-03-13T11:58:10.823Z,48.96
2017-03-13T11:59:10.806Z,49.73
2017-03-13T12:00:10.797Z,50.96
2017-03-13T12:01:10.900Z,51.82
2017-03-13T12:02:10.383Z,50.48
2017-03-13T12:03:10.770Z,51.25
2017-03-13T12:04:10.759Z,50.39
2017-03-13T12:05:10.741Z,49.15
2017-03-13T12:06:10.733Z,49.15
2017-03-13T12:07:10.734Z,50.2
2017-03-13T12:08:10.947Z,52.58
2017-03-13T12:09:10.704Z,52.67
2017-03-13T12:10:10.692Z,52.76
2017-03-13T12:11:10.691Z,52.29
2017-03-13T12:12:10.672Z,51.91
2017-03-13T12:13:10.660Z,52.67
2017-03-13T12:14:10.651Z,51.53
2017-03-13T12:15:10.642Z,51.62
2017-03-13T12:16:10.725Z,50.68
2017-03-13T12:17:10.619Z,51.53
2017-03-13T12:18:10.624Z,50.58
2017-03-13T12:19:10.607Z,49.82
2017-03-13T12:20:10.199Z,50.2
2017-03-13T12:21:10.585Z,50.48
2017-03-13T12:22:10.579Z,50.29
2017-03-13T12:23:10.221Z,49.44
2017-03-13T12:24:10.550Z,49.06
2017-03-13T12:25:10.542Z,48.96
2017-03-13T12:26:10.532Z,48.39
2017-03-13T12:27:10.528Z,49.44
2017-03-13T12:28:10.515Z,49.44
2017-03-13T12:29:10.500Z,49.54
2017-03-13T12:30:10.498Z,50.48
2017-03-13T12:31:10.479Z,50.01
2017-03-13T12:32:10.480Z,49.25
2017-03-13T12:33:10.460Z,50.87
2017-03-13T12:34:10.468Z,50.39
2017-03-13T12:35:10.454Z,50.2
2017-03-13T12:36:10.427Z,50.39
2017-03-13T12:37:10.423Z,50.29
2017-03-13T12:38:10.411Z,49.63
2017-03-13T12:39:10.398Z,50.2
2017-03-13T12:40:10.396Z,50.29
2017-03-13T12:41:09.979Z,50.01
2017-03-13T12:42:10.367Z,50.39
2017-03-13T12:43:10.360Z,48.96
2017-03-13T12:44:09.961Z,49.44
2017-03-13T12:45:10.340Z,49.54
2017-03-13T12:46:09.929Z,50.01
2017-03-13T12:47:10.319Z,51.25
2017-03-13T12:48:09.916Z,50.68
2017-03-13T12:49:10.312Z,49.63
2017-03-13T12:50:10.287Z,50.2
2017-03-13T12:51:10.279Z,52.48
2017-03-13T12:54:17.780Z,47.73
2017-03-13T12:55:17.764Z,48.21
2017-03-13T12:56:17.763Z,48.21